KSWF/SWF METAR and TAF weather

Enter ICAO airport designator
Station Type Date Time Source
KSWF METAR 2021/03/02 02:45 UTC NOAA

KSWF 020245Z 31024G39KT 10SM BKN060 M02/M08 A2984


Station Type Date Time Source
KSWF Decoded METAR 2021/03/02 02:45 UTC NOAA

Newburgh / Stewart, NY, United States (KSWF) 41-30N 074-06W
Mar 01, 2021 - 09:45 PM EST / 2021.03.02 0245 UTC
Wind: from the NW (310 degrees) at 28 MPH (24 KT) gusting to 45 MPH (39 KT):0
Visibility: 10 mile(s):0
Sky conditions: mostly cloudy
Temperature: 28 F (-2 C)
Windchill: 12 F (-11 C):1
Dew Point: 17 F (-8 C)
Relative Humidity: 63%
Pressure (altimeter): 29.84 in. Hg (1010 hPa)
ob: KSWF 020245Z 31024G39KT 10SM BKN060 M02/M08 A2984
cycle: 3

Station Type Date Time Source
KSWF TAF 2021/03/02 02:24 UTC NOAA

TAF
AMD KSWF 020220Z 0202/0306 30026G41KT P6SM SCT050
FM021100 30021G32KT P6SM FEW250
FM022100 28013G22KT P6SM FEW250
FM030300 27010KT P6SM FEW250
AMD NOT SKED

Example: see airport list